createdAt,value
2016-10-18T00:00:09.034Z,0
2016-10-18T00:01:09.186Z,0
2016-10-18T00:02:08.939Z,0
2016-10-18T00:03:08.867Z,0
2016-10-18T00:04:08.871Z,0
2016-10-18T00:05:09.203Z,0
2016-10-18T00:06:08.927Z,0
2016-10-18T00:07:08.800Z,0
2016-10-18T00:08:08.814Z,0
2016-10-18T00:09:08.705Z,0
2016-10-18T00:10:10.174Z,0
2016-10-18T00:11:10.470Z,0
2016-10-18T00:12:09.727Z,0
2016-10-18T00:13:23.326Z,0
2016-10-18T00:14:08.597Z,0
2016-10-18T00:15:23.582Z,0
2016-10-18T00:16:08.583Z,0
2016-10-18T00:17:09.978Z,0
2016-10-18T00:18:09.870Z,0
2016-10-18T00:19:08.489Z,0
2016-10-18T00:20:08.407Z,0
2016-10-18T00:21:08.504Z,0
2016-10-18T00:22:08.380Z,0
2016-10-18T00:23:09.017Z,0
2016-10-18T00:24:23.029Z,0
2016-10-18T00:25:09.026Z,0
2016-10-18T00:26:08.936Z,0
2016-10-18T00:27:08.846Z,0
2016-10-18T00:29:11.185Z,0
2016-10-18T00:30:08.538Z,0
2016-10-18T00:32:08.084Z,0
2016-10-18T00:34:08.014Z,0
2016-10-18T00:35:23.080Z,0
2016-10-18T00:36:08.480Z,0
2016-10-18T00:37:08.327Z,0
2016-10-18T00:38:07.927Z,0
2016-10-18T00:39:07.920Z,0
2016-10-18T00:40:08.212Z,0
2016-10-18T00:41:08.188Z,0
2016-10-18T00:42:07.797Z,0
2016-10-18T00:43:07.775Z,0
2016-10-18T00:44:07.779Z,0
2016-10-18T00:45:07.732Z,0
2016-10-18T00:46:22.784Z,0
2016-10-18T00:47:07.638Z,0
2016-10-18T00:48:22.396Z,0
2016-10-18T00:49:07.668Z,0
2016-10-18T00:50:07.609Z,0
2016-10-18T00:51:07.556Z,0
2016-10-18T00:52:07.591Z,0
2016-10-18T00:53:07.843Z,0
2016-10-18T00:54:08.864Z,0
2016-10-18T00:55:07.888Z,0
2016-10-18T00:56:08.083Z,0
2016-10-18T00:57:07.391Z,0
2016-10-18T00:58:07.366Z,0
2016-10-18T00:59:07.412Z,0
2016-10-18T01:00:07.344Z,0
2016-10-18T01:01:09.163Z,0
2016-10-18T01:02:07.250Z,0
2016-10-18T01:03:22.228Z,0
2016-10-18T01:04:07.172Z,0
2016-10-18T01:05:21.881Z,0
2016-10-18T01:06:07.133Z,0
2016-10-18T01:07:13.316Z,0
2016-10-18T01:08:07.128Z,0
2016-10-18T01:09:07.080Z,0
2016-10-18T01:10:07.161Z,0
2016-10-18T01:11:07.124Z,0
2016-10-18T01:12:07.244Z,0
2016-10-18T01:13:07.439Z,0
2016-10-18T01:14:06.936Z,0
2016-10-18T01:15:06.914Z,0
2016-10-18T01:17:07.183Z,0
2016-10-18T01:18:22.112Z,0
2016-10-18T01:19:06.750Z,0
2016-10-18T01:20:06.790Z,0
2016-10-18T01:21:07.078Z,0
2016-10-18T01:22:06.672Z,0
2016-10-18T01:23:06.675Z,0
2016-10-18T01:24:07.020Z,0
2016-10-18T01:25:06.633Z,0
2016-10-18T01:26:06.617Z,0
2016-10-18T01:27:06.552Z,0
2016-10-18T01:28:07.114Z,0
2016-10-18T01:29:21.203Z,0
2016-10-18T01:30:06.445Z,0
2016-10-18T01:31:06.600Z,0
2016-10-18T01:32:06.463Z,0
2016-10-18T01:33:06.402Z,0
2016-10-18T01:34:06.480Z,0
2016-10-18T01:35:06.308Z,0
2016-10-18T01:36:06.682Z,0
2016-10-18T01:37:06.280Z,0
2016-10-18T01:38:06.235Z,0
2016-10-18T01:39:06.203Z,0
2016-10-18T01:40:06.172Z,0
2016-10-18T01:41:06.485Z,0
2016-10-18T01:42:21.144Z,0
2016-10-18T01:43:06.384Z,0
2016-10-18T01:44:20.782Z,0
2016-10-18T01:45:06.400Z,0
2016-10-18T01:46:06.074Z,0
2016-10-18T01:47:05.977Z,0
2016-10-18T01:48:05.958Z,0
2016-10-18T01:49:06.347Z,0
2016-10-18T01:50:06.525Z,0
2016-10-18T01:51:06.237Z,0
2016-10-18T01:52:05.825Z,0
2016-10-18T01:53:06.158Z,0
2016-10-18T01:54:06.436Z,0
2016-10-18T01:55:05.910Z,0
2016-10-18T01:56:05.728Z,0
2016-10-18T01:57:05.911Z,0
2016-10-18T01:58:06.189Z,0
2016-10-18T01:59:06.011Z,0
2016-10-18T02:00:05.611Z,0
2016-10-18T02:01:05.948Z,0
2016-10-18T02:02:05.548Z,0
2016-10-18T02:03:05.969Z,0
2016-10-18T02:04:05.481Z,0
2016-10-18T02:05:05.806Z,0
2016-10-18T02:06:05.459Z,0
2016-10-18T02:07:05.416Z,0
2016-10-18T02:08:06.036Z,0
2016-10-18T02:09:05.372Z,0
2016-10-18T02:10:05.389Z,0
2016-10-18T02:11:05.292Z,0
2016-10-18T02:12:07.155Z,0
2016-10-18T02:13:05.223Z,0
2016-10-18T02:14:05.191Z,0
2016-10-18T02:15:05.556Z,0
2016-10-18T02:16:05.901Z,0
2016-10-18T02:17:19.833Z,0
2016-10-18T02:18:05.500Z,0
2016-10-18T02:19:05.169Z,0
2016-10-18T02:20:05.069Z,0
2016-10-18T02:21:05.036Z,0
2016-10-18T02:22:05.008Z,0
2016-10-18T02:23:05.387Z,0
2016-10-18T02:24:06.431Z,0
2016-10-18T02:25:05.249Z,0
2016-10-18T02:26:05.062Z,0
2016-10-18T02:27:04.839Z,0
2016-10-18T02:28:05.158Z,0
2016-10-18T02:29:06.164Z,0
2016-10-18T02:30:19.894Z,0
2016-10-18T02:31:04.959Z,0
2016-10-18T02:32:05.044Z,0
2016-10-18T02:33:05.380Z,0
2016-10-18T02:34:04.750Z,0
2016-10-18T02:35:04.746Z,0
2016-10-18T02:36:04.683Z,0
2016-10-18T02:37:04.563Z,0
2016-10-18T02:38:04.533Z,0
2016-10-18T02:39:04.592Z,0
2016-10-18T02:40:04.548Z,0
2016-10-18T02:41:04.523Z,0
2016-10-18T02:42:05.251Z,0
2016-10-18T02:43:04.396Z,0
2016-10-18T02:45:05.042Z,0
2016-10-18T02:46:04.695Z,0
2016-10-18T02:47:19.001Z,0
2016-10-18T02:48:04.639Z,0
2016-10-18T02:49:04.258Z,0
2016-10-18T02:50:04.232Z,0
2016-10-18T02:51:04.859Z,0
2016-10-18T02:52:04.178Z,0
2016-10-18T02:53:04.830Z,0
2016-10-18T02:54:04.071Z,0
2016-10-18T02:55:04.024Z,0
2016-10-18T02:56:04.025Z,0
2016-10-18T02:57:03.972Z,0
2016-10-18T02:58:03.994Z,0
2016-10-18T02:59:04.280Z,0
2016-10-18T03:00:03.893Z,0
2016-10-18T03:01:04.763Z,0
2016-10-18T03:02:03.928Z,0
2016-10-18T03:03:03.859Z,0
2016-10-18T03:04:03.787Z,0
2016-10-18T03:05:04.106Z,0
2016-10-18T03:06:03.724Z,0
2016-10-18T03:07:18.848Z,0
2016-10-18T03:08:04.142Z,0
2016-10-18T03:09:03.669Z,0
2016-10-18T03:10:03.637Z,0
2016-10-18T03:11:03.597Z,0
2016-10-18T03:12:03.553Z,0
2016-10-18T03:13:03.913Z,0
2016-10-18T03:14:18.240Z,0
2016-10-18T03:15:03.834Z,0
2016-10-18T03:17:03.772Z,0
2016-10-18T03:18:03.378Z,0
2016-10-18T03:19:03.362Z,0
2016-10-18T03:20:03.690Z,0
2016-10-18T03:21:18.043Z,0
2016-10-18T03:22:03.764Z,0
2016-10-18T03:23:03.295Z,0
2016-10-18T03:24:03.703Z,0
2016-10-18T03:25:03.232Z,0
2016-10-18T03:26:03.816Z,0
2016-10-18T03:27:03.190Z,0
2016-10-18T03:28:18.142Z,0
2016-10-18T03:29:03.091Z,0
2016-10-18T03:30:17.787Z,0
2016-10-18T03:31:03.402Z,0
2016-10-18T03:32:18.071Z,0
2016-10-18T03:33:03.544Z,0
2016-10-18T03:34:02.951Z,0
2016-10-18T03:35:03.356Z,0
2016-10-18T03:36:03.291Z,0
2016-10-18T03:37:02.900Z,0
2016-10-18T03:38:02.833Z,0
2016-10-18T03:39:02.833Z,0
2016-10-18T03:40:02.860Z,0
2016-10-18T03:41:03.146Z,0
2016-10-18T03:42:02.826Z,0
2016-10-18T03:43:02.723Z,0
2016-10-18T03:44:02.727Z,0
2016-10-18T03:45:02.979Z,0
2016-10-18T03:46:02.972Z,0
2016-10-18T03:47:03.307Z,0
2016-10-18T03:48:02.977Z,0
2016-10-18T03:49:02.881Z,0
2016-10-18T03:50:02.866Z,0
2016-10-18T03:51:02.831Z,0
2016-10-18T03:52:02.843Z,0
2016-10-18T03:53:02.454Z,0
2016-10-18T03:54:02.531Z,0
2016-10-18T03:55:02.854Z,0
2016-10-18T03:57:02.839Z,0
2016-10-18T03:58:02.242Z,0
2016-10-18T03:59:02.796Z,0
2016-10-18T04:01:17.295Z,0
2016-10-18T04:02:02.173Z,0
2016-10-18T04:03:02.552Z,0
2016-10-18T04:04:02.510Z,0
2016-10-18T04:05:02.541Z,0
2016-10-18T04:06:02.476Z,0
2016-10-18T04:07:01.996Z,0
2016-10-18T04:08:02.037Z,0
2016-10-18T04:09:01.935Z,0
2016-10-18T04:10:02.354Z,0
2016-10-18T04:11:01.929Z,0
2016-10-18T04:12:02.540Z,0
2016-10-18T04:13:01.821Z,0
2016-10-18T04:15:01.839Z,0
2016-10-18T04:16:16.983Z,0
2016-10-18T04:17:01.714Z,0
2016-10-18T04:18:02.061Z,0
2016-10-18T04:19:01.710Z,0
2016-10-18T04:20:01.614Z,0
2016-10-18T04:21:02.094Z,0
2016-10-18T04:22:01.617Z,0
2016-10-18T04:23:01.553Z,0
2016-10-18T04:24:01.989Z,0
2016-10-18T04:25:01.535Z,0
2016-10-18T04:26:01.905Z,0
2016-10-18T04:27:16.184Z,0
2016-10-18T04:28:01.401Z,0
2016-10-18T04:29:01.407Z,0
2016-10-18T04:30:01.360Z,0
2016-10-18T04:31:01.340Z,0
2016-10-18T04:32:01.349Z,0
2016-10-18T04:33:01.281Z,0
2016-10-18T04:34:01.738Z,0
2016-10-18T04:35:01.231Z,0
2016-10-18T04:36:01.314Z,0
2016-10-18T04:37:01.207Z,0
2016-10-18T04:38:01.139Z,0
2016-10-18T04:39:01.809Z,0
2016-10-18T04:40:01.139Z,0
2016-10-18T04:41:01.376Z,0
2016-10-18T04:42:01.447Z,0
2016-10-18T04:43:01.338Z,0
2016-10-18T04:45:00.958Z,0
2016-10-18T04:46:15.926Z,0
2016-10-18T04:47:00.899Z,0
2016-10-18T04:48:16.267Z,0
2016-10-18T04:49:00.898Z,0
2016-10-18T04:50:01.379Z,0
2016-10-18T04:51:00.779Z,0
2016-10-18T04:52:16.126Z,0
2016-10-18T04:53:00.707Z,0
2016-10-18T04:54:15.403Z,0
2016-10-18T04:55:00.623Z,0
2016-10-18T04:56:00.646Z,0
2016-10-18T04:57:00.593Z,0
2016-10-18T04:58:00.568Z,0
2016-10-18T04:59:00.542Z,0
2016-10-18T05:00:00.606Z,0
2016-10-18T05:01:01.406Z,0
2016-10-18T05:02:00.438Z,0
2016-10-18T05:03:00.491Z,0
2016-10-18T05:04:00.740Z,0
2016-10-18T05:05:00.375Z,0
2016-10-18T05:06:00.326Z,0
2016-10-18T05:07:00.317Z,0
2016-10-18T05:08:00.281Z,0
2016-10-18T05:09:00.278Z,0
2016-10-18T05:10:00.281Z,0
2016-10-18T05:11:00.314Z,0
2016-10-18T05:12:00.245Z,0
2016-10-18T05:13:00.569Z,0
2016-10-18T05:15:00.136Z,0
2016-10-18T05:16:00.168Z,0
2016-10-18T05:17:00.027Z,0
2016-10-18T05:18:00.011Z,0
2016-10-18T05:18:59.998Z,0
2016-10-18T05:20:00.578Z,0
2016-10-18T05:21:15.029Z,0
2016-10-18T05:21:59.884Z,0
2016-10-18T05:23:14.593Z,0
2016-10-18T05:23:59.922Z,0
2016-10-18T05:25:59.814Z,0
2016-10-18T05:27:14.465Z,0
2016-10-18T05:27:59.773Z,0
2016-10-18T05:28:59.708Z,0
2016-10-18T05:30:00.021Z,0
2016-10-18T05:30:59.634Z,0
2016-10-18T05:31:59.646Z,0
2016-10-18T05:32:59.948Z,0
2016-10-18T05:34:29.367Z,0
2016-10-18T05:34:59.563Z,0
2016-10-18T05:35:59.503Z,0
2016-10-18T05:36:59.820Z,0
2016-10-18T05:37:59.449Z,0
2016-10-18T05:39:14.441Z,0
2016-10-18T05:39:59.443Z,0
2016-10-18T05:41:14.096Z,0
2016-10-18T05:41:59.325Z,0
2016-10-18T05:42:59.298Z,0
2016-10-18T05:43:59.320Z,0
2016-10-18T05:44:59.245Z,0
2016-10-18T05:45:59.220Z,0
2016-10-18T05:46:59.176Z,0
2016-10-18T05:48:13.884Z,4
2016-10-18T05:48:59.156Z,4
2016-10-18T05:50:05.353Z,4
2016-10-18T05:50:59.191Z,4
2016-10-18T05:51:59.200Z,4
2016-10-18T05:52:59.021Z,0
2016-10-18T05:53:59.480Z,0
2016-10-18T05:54:58.993Z,4
2016-10-18T05:55:59.093Z,4
2016-10-18T05:57:13.951Z,4
2016-10-18T05:57:59.295Z,4
2016-10-18T05:58:58.855Z,4
2016-10-18T05:59:59.247Z,4
2016-10-18T06:00:58.788Z,4
2016-10-18T06:01:58.747Z,4
2016-10-18T06:02:59.199Z,8
2016-10-18T06:04:13.426Z,8
2016-10-18T06:04:58.716Z,8
2016-10-18T06:05:58.672Z,12
2016-10-18T06:06:58.991Z,8
2016-10-18T06:07:58.589Z,12
2016-10-18T06:08:58.583Z,12
2016-10-18T06:09:58.560Z,12
2016-10-18T06:10:58.498Z,12
2016-10-18T06:11:58.515Z,16
2016-10-18T06:12:58.848Z,16
2016-10-18T06:13:58.469Z,16
2016-10-18T06:15:13.443Z,16
2016-10-18T06:15:58.768Z,20
2016-10-18T06:16:58.468Z,20
2016-10-18T06:17:58.298Z,16
2016-10-18T06:18:58.316Z,20
2016-10-18T06:20:58.265Z,20
2016-10-18T06:21:58.265Z,24
2016-10-18T06:22:58.196Z,24
2016-10-18T06:23:58.946Z,24
2016-10-18T06:24:59.312Z,24
2016-10-18T06:25:58.386Z,24
2016-10-18T06:26:58.175Z,28
2016-10-18T06:27:58.437Z,28
2016-10-18T06:29:12.749Z,28
2016-10-18T06:29:58.017Z,28
2016-10-18T06:30:57.961Z,28
2016-10-18T06:31:57.949Z,32
2016-10-18T06:32:57.912Z,28
2016-10-18T06:33:57.878Z,28
2016-10-18T06:34:58.229Z,32
2016-10-18T06:35:58.900Z,32
2016-10-18T06:36:57.801Z,32
2016-10-18T06:37:57.804Z,32
2016-10-18T06:38:57.889Z,36
2016-10-18T06:39:57.732Z,36
2016-10-18T06:40:58.174Z,36
2016-10-18T06:42:12.385Z,40
2016-10-18T06:42:57.621Z,44
2016-10-18T06:43:57.954Z,40
2016-10-18T06:44:57.673Z,48
2016-10-18T06:45:57.594Z,52
2016-10-18T06:46:57.523Z,48
2016-10-18T06:47:57.887Z,52
2016-10-18T06:48:57.491Z,52
2016-10-18T06:49:57.446Z,52
2016-10-18T06:50:57.476Z,52
2016-10-18T06:51:57.592Z,52
2016-10-18T06:52:57.431Z,56
2016-10-18T06:54:03.628Z,56
2016-10-18T06:54:57.773Z,56
2016-10-18T06:56:57.537Z,56
2016-10-18T06:57:57.239Z,60
2016-10-18T06:58:57.546Z,60
2016-10-18T06:59:57.174Z,60
2016-10-18T07:00:57.181Z,60
2016-10-18T07:01:57.148Z,64
2016-10-18T07:02:57.545Z,60
2016-10-18T07:03:57.050Z,60
2016-10-18T07:04:57.380Z,60
2016-10-18T07:05:56.998Z,64
2016-10-18T07:06:57.361Z,60
2016-10-18T07:07:57.297Z,64
2016-10-18T07:09:03.363Z,64
2016-10-18T07:09:57.305Z,68
2016-10-18T07:11:12.037Z,64
2016-10-18T07:11:56.833Z,60
2016-10-18T07:12:57.176Z,56
2016-10-18T07:13:57.285Z,56
2016-10-18T07:14:56.743Z,56
2016-10-18T07:15:57.684Z,56
2016-10-18T07:16:57.114Z,64
2016-10-18T07:17:56.761Z,60
2016-10-18T07:18:56.781Z,68
2016-10-18T07:19:56.690Z,56
2016-10-18T07:20:56.658Z,56
2016-10-18T07:22:11.355Z,68
2016-10-18T07:22:56.543Z,68
2016-10-18T07:24:11.252Z,56
2016-10-18T07:24:57.017Z,60
2016-10-18T07:25:56.443Z,72
2016-10-18T07:26:56.405Z,72
2016-10-18T07:27:56.364Z,72
2016-10-18T07:28:56.373Z,72
2016-10-18T07:29:56.679Z,76
2016-10-18T07:30:56.647Z,76
2016-10-18T07:31:56.315Z,72
2016-10-18T07:33:11.341Z,76
2016-10-18T07:33:56.277Z,76
2016-10-18T07:34:56.200Z,76
2016-10-18T07:35:56.303Z,80
2016-10-18T07:36:56.847Z,80
2016-10-18T07:38:02.374Z,80
2016-10-18T07:38:56.791Z,80
2016-10-18T07:40:11.068Z,76
2016-10-18T07:40:56.861Z,80
2016-10-18T07:41:56.097Z,80
2016-10-18T07:42:56.092Z,80
2016-10-18T07:44:10.707Z,80
2016-10-18T07:44:56.271Z,80
2016-10-18T07:45:56.269Z,80
2016-10-18T07:46:56.207Z,80
2016-10-18T07:47:56.558Z,84
2016-10-18T07:48:55.918Z,80
2016-10-18T07:49:56.185Z,80
2016-10-18T07:50:55.789Z,84
2016-10-18T07:52:10.529Z,84
2016-10-18T07:52:56.121Z,84
2016-10-18T07:53:56.049Z,88
2016-10-18T07:54:56.431Z,84
2016-10-18T07:55:56.122Z,88
2016-10-18T07:56:55.644Z,88
2016-10-18T07:57:56.442Z,88
2016-10-18T07:58:55.991Z,88
2016-10-18T07:59:55.902Z,88
2016-10-18T08:00:55.886Z,92
2016-10-18T08:01:55.432Z,88
2016-10-18T08:02:55.790Z,88
2016-10-18T08:03:55.431Z,92
2016-10-18T08:04:55.899Z,92
2016-10-18T08:05:55.500Z,92
2016-10-18T08:06:55.308Z,92
2016-10-18T08:07:55.310Z,92
2016-10-18T08:08:55.977Z,96
2016-10-18T08:09:55.228Z,92
2016-10-18T08:10:55.338Z,96
2016-10-18T08:11:55.605Z,96
2016-10-18T08:12:55.519Z,96
2016-10-18T08:13:55.169Z,100
2016-10-18T08:14:55.608Z,120
2016-10-18T08:15:56.184Z,144
2016-10-18T08:16:56.406Z,160
2016-10-18T08:17:55.030Z,128
2016-10-18T08:18:55.040Z,128
2016-10-18T08:20:10.560Z,108
2016-10-18T08:20:54.993Z,112
2016-10-18T08:21:54.927Z,100
2016-10-18T08:22:54.911Z,92
2016-10-18T08:23:54.911Z,104
2016-10-18T08:24:54.887Z,108
2016-10-18T08:25:54.944Z,112
2016-10-18T08:27:01.192Z,120
2016-10-18T08:27:55.575Z,112
2016-10-18T08:28:54.720Z,112
2016-10-18T08:29:54.793Z,112
2016-10-18T08:30:54.684Z,112
2016-10-18T08:31:54.663Z,116
2016-10-18T08:32:55.171Z,116
2016-10-18T08:33:54.568Z,120
2016-10-18T08:34:55.063Z,120
2016-10-18T08:35:54.974Z,124
2016-10-18T08:36:54.895Z,112
2016-10-18T08:38:09.577Z,124
2016-10-18T08:38:54.490Z,120
2016-10-18T08:39:54.769Z,124
2016-10-18T08:40:55.956Z,124
2016-10-18T08:41:54.713Z,124
2016-10-18T08:42:54.403Z,124
2016-10-18T08:43:54.615Z,124
2016-10-18T08:44:54.644Z,132
2016-10-18T08:45:54.470Z,128
2016-10-18T08:46:54.268Z,128
2016-10-18T08:47:54.588Z,128
2016-10-18T08:48:54.193Z,116
2016-10-18T08:49:54.221Z,132
2016-10-18T08:50:54.548Z,124
2016-10-18T08:51:54.179Z,108
2016-10-18T08:53:08.811Z,132
2016-10-18T08:53:54.031Z,140
2016-10-18T08:54:54.039Z,140
2016-10-18T08:55:53.988Z,116
2016-10-18T08:56:54.021Z,168
2016-10-18T08:57:54.303Z,168
2016-10-18T08:58:54.348Z,248
2016-10-18T09:00:08.644Z,168
2016-10-18T09:00:54.902Z,216
2016-10-18T09:01:54.853Z,388
2016-10-18T09:02:53.803Z,304
2016-10-18T09:03:54.192Z,296
2016-10-18T09:04:53.841Z,336
2016-10-18T09:05:54.214Z,320
2016-10-18T09:06:53.811Z,268
2016-10-18T09:07:53.778Z,260
2016-10-18T09:08:53.694Z,280
2016-10-18T09:09:53.729Z,232
2016-10-18T09:10:53.662Z,212
2016-10-18T09:12:53.648Z,232
2016-10-18T09:13:53.550Z,276
2016-10-18T09:14:53.870Z,224
2016-10-18T09:15:54.035Z,192
2016-10-18T09:16:53.469Z,176
2016-10-18T09:17:53.597Z,212
2016-10-18T09:19:08.085Z,212
2016-10-18T09:19:53.404Z,248
2016-10-18T09:20:53.381Z,288
2016-10-18T09:21:53.328Z,272
2016-10-18T09:22:53.667Z,224
2016-10-18T09:24:07.946Z,224
2016-10-18T09:24:53.250Z,240
2016-10-18T09:26:07.969Z,212
2016-10-18T09:26:53.611Z,220
2016-10-18T09:27:53.145Z,240
2016-10-18T09:28:53.306Z,244
2016-10-18T09:29:54.277Z,236
2016-10-18T09:30:53.109Z,248
2016-10-18T09:31:53.495Z,244
2016-10-18T09:32:53.045Z,256
2016-10-18T09:33:53.028Z,244
2016-10-18T09:34:53.348Z,272
2016-10-18T09:35:53.512Z,248
2016-10-18T09:36:52.966Z,240
2016-10-18T09:37:52.888Z,220
2016-10-18T09:38:52.867Z,240
2016-10-18T09:39:53.188Z,316
2016-10-18T09:41:07.935Z,276
2016-10-18T09:41:53.291Z,224
2016-10-18T09:42:53.509Z,184
2016-10-18T09:43:52.780Z,136
2016-10-18T09:44:52.833Z,172
2016-10-18T09:45:53.500Z,152
2016-10-18T09:46:52.840Z,180
2016-10-18T09:47:53.105Z,176
2016-10-18T09:48:52.672Z,156
2016-10-18T09:49:52.670Z,144
2016-10-18T09:50:53.321Z,116
2016-10-18T09:51:53.199Z,132
2016-10-18T09:52:52.630Z,152
2016-10-18T09:54:07.263Z,176
2016-10-18T09:54:52.925Z,224
2016-10-18T09:57:45.003Z,188
2016-10-18T09:58:16.795Z,212
2016-10-18T09:59:16.033Z,328
2016-10-18T10:00:16.194Z,448
2016-10-18T10:01:16.210Z,320
2016-10-18T10:02:15.409Z,344
2016-10-18T10:03:15.808Z,436
2016-10-18T10:04:15.879Z,340
2016-10-18T10:05:15.763Z,408
2016-10-18T10:06:16.243Z,504
2016-10-18T10:07:15.759Z,380
2016-10-18T10:08:30.360Z,368
2016-10-18T10:09:15.663Z,344
2016-10-18T10:10:15.295Z,368
2016-10-18T10:11:30.466Z,352
2016-10-18T10:12:15.201Z,424
2016-10-18T10:13:15.521Z,388
2016-10-18T10:14:15.105Z,372
2016-10-18T10:15:15.631Z,328
2016-10-18T10:16:15.840Z,364
2016-10-18T10:17:15.453Z,284
2016-10-18T10:18:15.047Z,328
2016-10-18T10:19:14.991Z,340
2016-10-18T10:20:15.744Z,396
2016-10-18T10:21:15.030Z,356
2016-10-18T10:22:15.589Z,268
2016-10-18T10:23:15.269Z,340
2016-10-18T10:24:14.857Z,344
2016-10-18T10:25:15.549Z,476
2016-10-18T10:27:14.793Z,348
2016-10-18T10:28:14.738Z,416
2016-10-18T10:29:15.070Z,400
2016-10-18T10:30:31.084Z,432
2016-10-18T10:31:14.673Z,456
2016-10-18T10:32:15.291Z,496
2016-10-18T10:33:14.633Z,400
2016-10-18T10:34:29.595Z,356
2016-10-18T10:35:15.341Z,264
2016-10-18T10:36:29.288Z,220
2016-10-18T10:37:16.521Z,176
2016-10-18T10:38:29.576Z,236
2016-10-18T10:39:15.645Z,296
2016-10-18T10:40:15.796Z,424
2016-10-18T10:41:15.366Z,392
2016-10-18T10:42:15.710Z,400
2016-10-18T10:43:14.358Z,504
2016-10-18T10:44:14.357Z,564
2016-10-18T10:45:15.186Z,528
2016-10-18T10:46:14.794Z,516
2016-10-18T10:47:19.250Z,544
2016-10-18T10:48:14.445Z,464
2016-10-18T10:49:20.039Z,588
2016-10-18T10:50:14.577Z,624
2016-10-18T10:51:30.197Z,544
2016-10-18T10:52:15.924Z,556
2016-10-18T10:53:14.981Z,524
2016-10-18T10:54:15.090Z,556
2016-10-18T10:55:14.684Z,500
2016-10-18T10:56:29.095Z,464
2016-10-18T10:57:28.861Z,396
2016-10-18T10:58:29.386Z,292
2016-10-18T10:59:14.312Z,244
2016-10-18T11:00:14.049Z,248
2016-10-18T11:01:14.347Z,244
2016-10-18T11:02:14.520Z,272
2016-10-18T11:03:13.849Z,308
2016-10-18T11:04:14.110Z,344
2016-10-18T11:05:14.370Z,364
2016-10-18T11:06:28.501Z,440
2016-10-18T11:07:13.789Z,588
2016-10-18T11:08:13.761Z,556
2016-10-18T11:09:28.815Z,508
2016-10-18T11:10:14.431Z,496
2016-10-18T11:11:14.485Z,572
2016-10-18T11:12:13.887Z,424
2016-10-18T11:13:13.532Z,444
2016-10-18T11:15:13.828Z,532
2016-10-18T11:16:29.464Z,552
2016-10-18T11:17:13.638Z,552
2016-10-18T11:18:28.926Z,556
2016-10-18T11:19:14.209Z,608
2016-10-18T11:20:13.680Z,588
2016-10-18T11:21:14.675Z,624
2016-10-18T11:22:13.439Z,548
2016-10-18T11:23:14.222Z,516
2016-10-18T11:24:13.853Z,504
2016-10-18T11:25:14.051Z,512
2016-10-18T11:26:15.204Z,492
2016-10-18T11:27:28.338Z,544
2016-10-18T11:28:13.706Z,484
2016-10-18T11:29:13.171Z,368
2016-10-18T11:30:14.550Z,316
2016-10-18T11:31:13.868Z,284
2016-10-18T11:32:13.545Z,304
2016-10-18T11:33:13.860Z,504
2016-10-18T11:34:13.409Z,420
2016-10-18T11:35:13.531Z,420
2016-10-18T11:36:13.119Z,372
2016-10-18T11:37:13.717Z,348
2016-10-18T11:38:28.158Z,324
2016-10-18T11:39:13.024Z,380
2016-10-18T11:40:42.840Z,500
2016-10-18T11:41:13.621Z,544
2016-10-18T11:42:13.853Z,592
2016-10-18T11:43:13.220Z,580
2016-10-18T11:44:12.791Z,596
2016-10-18T11:45:13.097Z,576
2016-10-18T11:46:13.370Z,572
2016-10-18T11:47:27.572Z,600
2016-10-18T11:48:13.256Z,608
2016-10-18T11:49:13.007Z,612
2016-10-18T11:50:12.631Z,608
2016-10-18T11:51:12.778Z,608
2016-10-18T11:52:12.974Z,624
2016-10-18T11:53:12.990Z,624
2016-10-18T11:54:13.038Z,628
2016-10-18T11:55:12.892Z,640
2016-10-18T11:56:13.231Z,624
2016-10-18T11:57:12.498Z,620
2016-10-18T11:58:27.799Z,584
2016-10-18T11:59:12.479Z,584
2016-10-18T12:00:13.185Z,592
2016-10-18T12:01:13.239Z,572
2016-10-18T12:02:13.320Z,568
2016-10-18T12:03:12.303Z,600
2016-10-18T12:04:12.672Z,620
2016-10-18T12:05:12.308Z,588
2016-10-18T12:06:12.670Z,604
2016-10-18T12:07:12.895Z,536
2016-10-18T12:08:26.927Z,492
2016-10-18T12:09:12.331Z,528
2016-10-18T12:10:12.475Z,572
2016-10-18T12:11:12.364Z,576
2016-10-18T12:12:12.079Z,588
2016-10-18T12:13:13.294Z,608
2016-10-18T12:14:12.500Z,580
2016-10-18T12:15:13.518Z,528
2016-10-18T12:16:14.052Z,452
2016-10-18T12:17:11.954Z,404
2016-10-18T12:18:12.130Z,392
2016-10-18T12:19:12.607Z,408
2016-10-18T12:20:12.115Z,396
2016-10-18T12:21:12.356Z,344
2016-10-18T12:22:12.040Z,340
2016-10-18T12:23:11.986Z,352
2016-10-18T12:24:26.885Z,376
2016-10-18T12:25:11.962Z,348
2016-10-18T12:26:12.464Z,348
2016-10-18T12:27:11.788Z,308
2016-10-18T12:28:11.900Z,292
2016-10-18T12:29:12.329Z,252
2016-10-18T12:30:12.187Z,236
2016-10-18T12:32:12.291Z,212
2016-10-18T12:33:26.678Z,236
2016-10-18T12:34:12.010Z,236
2016-10-18T12:35:26.226Z,308
2016-10-18T12:36:12.877Z,292
2016-10-18T12:37:12.076Z,212
2016-10-18T12:38:11.418Z,152
2016-10-18T12:39:11.383Z,132
2016-10-18T12:40:27.694Z,76
2016-10-18T12:41:12.196Z,64
2016-10-18T12:42:27.706Z,48
2016-10-18T12:43:12.859Z,40
2016-10-18T12:44:13.490Z,40
2016-10-18T12:45:13.047Z,52
2016-10-18T12:46:13.218Z,56
2016-10-18T12:47:11.288Z,92
2016-10-18T12:48:11.530Z,132
2016-10-18T12:49:11.449Z,180
2016-10-18T12:50:12.063Z,184
2016-10-18T12:51:11.493Z,172
2016-10-18T12:52:11.135Z,168
2016-10-18T12:53:26.122Z,156
2016-10-18T12:54:11.871Z,152
2016-10-18T12:55:11.092Z,152
2016-10-18T12:56:12.365Z,140
2016-10-18T12:57:11.366Z,140
2016-10-18T12:58:10.920Z,132
2016-10-18T12:59:10.899Z,132
2016-10-18T13:00:11.392Z,120
2016-10-18T13:01:10.827Z,120
2016-10-18T13:02:11.849Z,112
2016-10-18T13:03:11.455Z,112
2016-10-18T13:04:11.404Z,112
2016-10-18T13:05:11.116Z,116
2016-10-18T13:06:11.945Z,120
2016-10-18T13:07:11.671Z,132
2016-10-18T13:08:25.721Z,128
2016-10-18T13:09:11.106Z,120
2016-10-18T13:10:11.635Z,128
2016-10-18T13:11:11.549Z,124
2016-10-18T13:12:10.546Z,136
2016-10-18T13:13:10.514Z,120
2016-10-18T13:14:10.878Z,120
2016-10-18T13:15:11.432Z,120
2016-10-18T13:16:10.456Z,120
2016-10-18T13:17:25.542Z,120
2016-10-18T13:18:10.506Z,116
2016-10-18T13:19:11.875Z,124
2016-10-18T13:20:11.206Z,120
2016-10-18T13:21:11.005Z,120
2016-10-18T13:23:10.538Z,120
2016-10-18T13:24:10.274Z,120
2016-10-18T13:25:10.684Z,112
2016-10-18T13:26:12.029Z,100
2016-10-18T13:27:10.764Z,128
2016-10-18T13:28:25.966Z,124
2016-10-18T13:29:10.503Z,128
2016-10-18T13:30:24.961Z,116
2016-10-18T13:31:10.545Z,128
2016-10-18T13:32:24.861Z,116
2016-10-18T13:33:09.959Z,120
2016-10-18T13:34:10.548Z,116
2016-10-18T13:35:11.456Z,116
2016-10-18T13:36:10.038Z,112
2016-10-18T13:37:10.327Z,116
2016-10-18T13:38:09.890Z,120
2016-10-18T13:39:10.265Z,120
2016-10-18T13:40:10.278Z,128
2016-10-18T13:41:25.546Z,140
2016-10-18T13:42:09.780Z,156
2016-10-18T13:43:09.762Z,164
2016-10-18T13:44:09.716Z,168
2016-10-18T13:45:10.100Z,168
2016-10-18T13:46:10.107Z,176
2016-10-18T13:47:10.261Z,180
2016-10-18T13:49:10.034Z,176
2016-10-18T13:50:24.295Z,184
2016-10-18T13:51:10.072Z,180
2016-10-18T13:52:24.573Z,188
2016-10-18T13:53:10.260Z,188
2016-10-18T13:54:24.197Z,184
2016-10-18T13:55:09.487Z,184
2016-10-18T13:56:24.142Z,168
2016-10-18T13:57:10.276Z,168
2016-10-18T13:58:09.868Z,164
2016-10-18T13:59:10.354Z,168
2016-10-18T14:00:24.068Z,176
2016-10-18T14:01:09.622Z,184
2016-10-18T14:02:09.253Z,176
2016-10-18T14:03:09.372Z,164
2016-10-18T14:04:09.682Z,148
2016-10-18T14:05:09.147Z,136
2016-10-18T14:06:09.577Z,132
2016-10-18T14:07:09.655Z,124
2016-10-18T14:08:10.150Z,112
2016-10-18T14:09:10.273Z,104
2016-10-18T14:10:09.451Z,100
2016-10-18T14:11:09.957Z,88
2016-10-18T14:12:09.571Z,88
2016-10-18T14:13:09.622Z,88
2016-10-18T14:14:09.437Z,84
2016-10-18T14:15:08.978Z,76
2016-10-18T14:16:23.620Z,76
2016-10-18T14:17:08.947Z,72
2016-10-18T14:18:08.989Z,72
2016-10-18T14:19:09.147Z,68
2016-10-18T14:20:09.043Z,72
2016-10-18T14:21:09.737Z,72
2016-10-18T14:22:09.113Z,76
2016-10-18T14:23:09.135Z,80
2016-10-18T14:24:08.661Z,80
2016-10-18T14:25:09.106Z,76
2016-10-18T14:26:09.078Z,72
2016-10-18T14:27:08.990Z,72
2016-10-18T14:28:09.955Z,60
2016-10-18T14:29:23.745Z,56
2016-10-18T14:30:08.949Z,56
2016-10-18T14:31:08.935Z,56
2016-10-18T14:32:08.472Z,52
2016-10-18T14:33:08.441Z,56
2016-10-18T14:34:08.420Z,68
2016-10-18T14:35:09.088Z,72
2016-10-18T14:36:09.448Z,72
2016-10-18T14:37:09.453Z,60